sensor_id;sensor_type;location;lat;lon;timestamp;temperature;humidity
4604;DHT22;2314;48.272;11.562;2022-08-21T00:00:47;16.20;99.90
4604;DHT22;2314;48.272;11.562;2022-08-21T00:03:15;16.20;99.90
4604;DHT22;2314;48.272;11.562;2022-08-21T00:05:44;16.10;99.90
4604;DHT22;2314;48.272;11.562;2022-08-21T00:08:12;16.10;99.90
4604;DHT22;2314;48.272;11.562;2022-08-21T00:10:42;16.10;99.90
4604;DHT22;2314;48.272;11.562;2022-08-21T00:13:11;16.10;99.90
4604;DHT22;2314;48.272;11.562;2022-08-21T00:15:39;16.00;99.90
4604;DHT22;2314;48.272;11.562;2022-08-21T00:18:08;16.00;99.90
4604;DHT22;2314;48.272;11.562;2022-08-21T00:20:38;16.00;99.90
4604;DHT22;2314;48.272;11.562;2022-08-21T00:23:06;16.00;99.90
4604;DHT22;2314;48.272;11.562;2022-08-21T00:25:33;16.00;99.90
4604;DHT22;2314;48.272;11.562;2022-08-21T00:28:02;15.90;99.90
4604;DHT22;2314;48.272;11.562;2022-08-21T00:30:31;15.90;99.90
4604;DHT22;2314;48.272;11.562;2022-08-21T00:32:58;15.90;99.90
4604;DHT22;2314;48.272;11.562;2022-08-21T00:35:28;15.90;99.90
4604;DHT22;2314;48.272;11.562;2022-08-21T00:37:57;15.80;99.90
4604;DHT22;2314;48.272;11.562;2022-08-21T00:40:27;15.80;99.90
4604;DHT22;2314;48.272;11.562;2022-08-21T00:42:55;15.80;99.90
4604;DHT22;2314;48.272;11.562;2022-08-21T00:45:24;15.80;99.90
4604;DHT22;2314;48.272;11.562;2022-08-21T00:47:53;15.80;99.90
4604;DHT22;2314;48.272;11.562;2022-08-21T00:50:22;15.80;99.90
4604;DHT22;2314;48.272;11.562;2022-08-21T00:52:52;15.70;99.90
4604;DHT22;2314;48.272;11.562;2022-08-21T00:55:20;15.70;99.90
4604;DHT22;2314;48.272;11.562;2022-08-21T00:57:51;15.70;99.90
4604;DHT22;2314;48.272;11.562;2022-08-21T01:00:22;15.70;99.90
4604;DHT22;2314;48.272;11.562;2022-08-21T01:02:53;15.60;99.90
4604;DHT22;2314;48.272;11.562;2022-08-21T01:05:21;15.60;99.90
4604;DHT22;2314;48.272;11.562;2022-08-21T01:07:48;15.60;99.90
4604;DHT22;2314;48.272;11.562;2022-08-21T01:10:16;15.60;99.90
4604;DHT22;2314;48.272;11.562;2022-08-21T01:12:44;15.50;99.90
4604;DHT22;2314;48.272;11.562;2022-08-21T01:15:13;15.50;99.90
4604;DHT22;2314;48.272;11.562;2022-08-21T01:17:42;15.50;99.90
4604;DHT22;2314;48.272;11.562;2022-08-21T01:20:11;15.50;99.90
4604;DHT22;2314;48.272;11.562;2022-08-21T01:22:39;15.50;99.90
4604;DHT22;2314;48.272;11.562;2022-08-21T01:25:09;15.50;99.90
4604;DHT22;2314;48.272;11.562;2022-08-21T01:27:37;15.50;99.90
4604;DHT22;2314;48.272;11.562;2022-08-21T01:30:10;15.50;99.90
4604;DHT22;2314;48.272;11.562;2022-08-21T01:32:40;15.50;99.90
4604;DHT22;2314;48.272;11.562;2022-08-21T01:35:08;15.50;99.90
4604;DHT22;2314;48.272;11.562;2022-08-21T01:37:35;15.40;99.90
4604;DHT22;2314;48.272;11.562;2022-08-21T01:40:05;15.40;99.90
4604;DHT22;2314;48.272;11.562;2022-08-21T01:42:34;15.40;99.90
4604;DHT22;2314;48.272;11.562;2022-08-21T01:45:01;15.40;99.90
4604;DHT22;2314;48.272;11.562;2022-08-21T01:47:28;15.40;99.90
4604;DHT22;2314;48.272;11.562;2022-08-21T01:49:55;15.40;99.90
4604;DHT22;2314;48.272;11.562;2022-08-21T01:52:22;15.40;99.90
4604;DHT22;2314;48.272;11.562;2022-08-21T01:54:50;15.30;99.90
4604;DHT22;2314;48.272;11.562;2022-08-21T01:57:18;15.30;99.90
4604;DHT22;2314;48.272;11.562;2022-08-21T01:59:45;15.30;99.90
4604;DHT22;2314;48.272;11.562;2022-08-21T02:02:12;15.30;99.90
4604;DHT22;2314;48.272;11.562;2022-08-21T02:04:39;15.20;99.90
4604;DHT22;2314;48.272;11.562;2022-08-21T02:07:07;15.20;99.90
4604;DHT22;2314;48.272;11.562;2022-08-21T02:09:34;15.20;99.90
4604;DHT22;2314;48.272;11.562;2022-08-21T02:12:02;15.20;99.90
4604;DHT22;2314;48.272;11.562;2022-08-21T02:14:30;15.20;99.90
4604;DHT22;2314;48.272;11.562;2022-08-21T02:16:57;15.20;99.90
4604;DHT22;2314;48.272;11.562;2022-08-21T02:19:25;15.10;99.90
4604;DHT22;2314;48.272;11.562;2022-08-21T02:21:52;15.10;99.90
4604;DHT22;2314;48.272;11.562;2022-08-21T02:24:19;15.10;99.90
4604;DHT22;2314;48.272;11.562;2022-08-21T02:26:46;15.10;99.90
4604;DHT22;2314;48.272;11.562;2022-08-21T02:29:13;15.10;99.90
4604;DHT22;2314;48.272;11.562;2022-08-21T02:31:41;15.10;99.90
4604;DHT22;2314;48.272;11.562;2022-08-21T02:34:08;15.00;99.90
4604;DHT22;2314;48.272;11.562;2022-08-21T02:36:35;15.10;99.90
4604;DHT22;2314;48.272;11.562;2022-08-21T02:39:02;15.00;99.90
4604;DHT22;2314;48.272;11.562;2022-08-21T02:41:30;15.00;99.90
4604;DHT22;2314;48.272;11.562;2022-08-21T02:43:57;15.00;99.90
4604;DHT22;2314;48.272;11.562;2022-08-21T02:46:24;15.00;99.90
4604;DHT22;2314;48.272;11.562;2022-08-21T02:48:52;14.90;99.90
4604;DHT22;2314;48.272;11.562;2022-08-21T02:51:20;14.90;99.90
4604;DHT22;2314;48.272;11.562;2022-08-21T02:53:48;14.90;99.90
4604;DHT22;2314;48.272;11.562;2022-08-21T02:56:19;14.90;99.90
4604;DHT22;2314;48.272;11.562;2022-08-21T02:58:50;14.90;99.90
4604;DHT22;2314;48.272;11.562;2022-08-21T03:01:18;14.90;99.90
4604;DHT22;2314;48.272;11.562;2022-08-21T03:03:46;14.80;99.90
4604;DHT22;2314;48.272;11.562;2022-08-21T03:06:20;14.80;99.90
4604;DHT22;2314;48.272;11.562;2022-08-21T03:08:48;14.70;99.90
4604;DHT22;2314;48.272;11.562;2022-08-21T03:11:16;14.70;99.90
4604;DHT22;2314;48.272;11.562;2022-08-21T03:13:46;14.70;99.90
4604;DHT22;2314;48.272;11.562;2022-08-21T03:16:13;14.70;99.90
4604;DHT22;2314;48.272;11.562;2022-08-21T03:18:40;14.70;99.90
4604;DHT22;2314;48.272;11.562;2022-08-21T03:21:07;14.70;99.90
4604;DHT22;2314;48.272;11.562;2022-08-21T03:23:36;14.60;99.90
4604;DHT22;2314;48.272;11.562;2022-08-21T03:26:05;14.60;99.90
4604;DHT22;2314;48.272;11.562;2022-08-21T03:28:33;14.60;99.90
4604;DHT22;2314;48.272;11.562;2022-08-21T03:31:00;14.60;99.90
4604;DHT22;2314;48.272;11.562;2022-08-21T03:33:27;14.60;99.90
4604;DHT22;2314;48.272;11.562;2022-08-21T03:35:58;14.60;99.90
4604;DHT22;2314;48.272;11.562;2022-08-21T03:38:28;14.60;99.90
4604;DHT22;2314;48.272;11.562;2022-08-21T03:40:58;14.60;99.90
4604;DHT22;2314;48.272;11.562;2022-08-21T03:43:26;14.50;99.90
4604;DHT22;2314;48.272;11.562;2022-08-21T03:45:53;14.50;99.90
4604;DHT22;2314;48.272;11.562;2022-08-21T03:48:20;14.50;99.90
4604;DHT22;2314;48.272;11.562;2022-08-21T03:50:48;14.50;99.90
4604;DHT22;2314;48.272;11.562;2022-08-21T03:53:18;14.50;99.90
4604;DHT22;2314;48.272;11.562;2022-08-21T03:55:47;14.50;99.90
4604;DHT22;2314;48.272;11.562;2022-08-21T03:58:18;14.50;99.90
4604;DHT22;2314;48.272;11.562;2022-08-21T04:00:48;14.40;99.90
4604;DHT22;2314;48.272;11.562;2022-08-21T04:03:17;14.40;99.90
4604;DHT22;2314;48.272;11.562;2022-08-21T04:05:45;14.30;99.90
4604;DHT22;2314;48.272;11.562;2022-08-21T04:08:13;14.30;99.90
4604;DHT22;2314;48.272;11.562;2022-08-21T04:10:44;14.30;99.90
4604;DHT22;2314;48.272;11.562;2022-08-21T04:13:12;14.30;99.90
4604;DHT22;2314;48.272;11.562;2022-08-21T04:15:41;14.20;99.90
4604;DHT22;2314;48.272;11.562;2022-08-21T04:18:09;14.20;99.90
4604;DHT22;2314;48.272;11.562;2022-08-21T04:20:36;14.20;99.90
4604;DHT22;2314;48.272;11.562;2022-08-21T04:23:03;14.10;99.90
4604;DHT22;2314;48.272;11.562;2022-08-21T04:25:31;14.20;99.90
4604;DHT22;2314;48.272;11.562;2022-08-21T04:27:58;14.20;99.90
4604;DHT22;2314;48.272;11.562;2022-08-21T04:30:25;14.20;99.90
4604;DHT22;2314;48.272;11.562;2022-08-21T04:32:55;14.20;99.90
4604;DHT22;2314;48.272;11.562;2022-08-21T04:35:25;14.20;99.90
4604;DHT22;2314;48.272;11.562;2022-08-21T04:37:53;14.20;99.90
4604;DHT22;2314;48.272;11.562;2022-08-21T04:40:22;14.20;99.90
4604;DHT22;2314;48.272;11.562;2022-08-21T04:42:54;14.20;99.90
4604;DHT22;2314;48.272;11.562;2022-08-21T04:45:24;14.20;99.90
4604;DHT22;2314;48.272;11.562;2022-08-21T04:47:55;14.30;99.90
4604;DHT22;2314;48.272;11.562;2022-08-21T04:50:27;14.30;99.90
4604;DHT22;2314;48.272;11.562;2022-08-21T04:52:56;14.30;99.90
4604;DHT22;2314;48.272;11.562;2022-08-21T04:55:24;14.30;99.90
4604;DHT22;2314;48.272;11.562;2022-08-21T04:57:53;14.30;99.90
4604;DHT22;2314;48.272;11.562;2022-08-21T05:00:22;14.30;99.90
4604;DHT22;2314;48.272;11.562;2022-08-21T05:02:50;14.30;99.90
4604;DHT22;2314;48.272;11.562;2022-08-21T05:05:21;14.30;99.90
4604;DHT22;2314;48.272;11.562;2022-08-21T05:07:48;14.30;99.90
4604;DHT22;2314;48.272;11.562;2022-08-21T05:10:15;14.40;99.90
4604;DHT22;2314;48.272;11.562;2022-08-21T05:12:43;14.40;99.90
4604;DHT22;2314;48.272;11.562;2022-08-21T05:15:11;14.40;99.90
4604;DHT22;2314;48.272;11.562;2022-08-21T05:17:39;14.40;99.90
4604;DHT22;2314;48.272;11.562;2022-08-21T05:20:07;14.40;99.90
4604;DHT22;2314;48.272;11.562;2022-08-21T05:22:37;14.40;99.90
4604;DHT22;2314;48.272;11.562;2022-08-21T05:25:05;14.50;99.90
4604;DHT22;2314;48.272;11.562;2022-08-21T05:27:33;14.50;99.90
4604;DHT22;2314;48.272;11.562;2022-08-21T05:30:01;14.50;99.90
4604;DHT22;2314;48.272;11.562;2022-08-21T05:32:28;14.60;99.90
4604;DHT22;2314;48.272;11.562;2022-08-21T05:34:55;14.60;99.90
4604;DHT22;2314;48.272;11.562;2022-08-21T05:37:22;14.70;99.90
4604;DHT22;2314;48.272;11.562;2022-08-21T05:39:50;14.70;99.90
4604;DHT22;2314;48.272;11.562;2022-08-21T05:42:17;14.80;99.90
4604;DHT22;2314;48.272;11.562;2022-08-21T05:44:44;14.80;99.90
4604;DHT22;2314;48.272;11.562;2022-08-21T05:47:11;14.90;99.90
4604;DHT22;2314;48.272;11.562;2022-08-21T05:49:38;14.90;99.90
4604;DHT22;2314;48.272;11.562;2022-08-21T05:52:06;14.90;99.90
4604;DHT22;2314;48.272;11.562;2022-08-21T05:54:34;15.00;99.90
4604;DHT22;2314;48.272;11.562;2022-08-21T05:57:04;15.00;99.90
4604;DHT22;2314;48.272;11.562;2022-08-21T05:59:31;15.10;99.90
4604;DHT22;2314;48.272;11.562;2022-08-21T06:01:58;15.10;99.90
4604;DHT22;2314;48.272;11.562;2022-08-21T06:04:25;15.20;99.90
4604;DHT22;2314;48.272;11.562;2022-08-21T06:06:52;15.20;99.90
4604;DHT22;2314;48.272;11.562;2022-08-21T06:09:20;15.30;99.90
4604;DHT22;2314;48.272;11.562;2022-08-21T06:11:47;15.40;99.90
4604;DHT22;2314;48.272;11.562;2022-08-21T06:14:15;15.40;99.90
4604;DHT22;2314;48.272;11.562;2022-08-21T06:16:43;15.40;99.90
4604;DHT22;2314;48.272;11.562;2022-08-21T06:19:10;15.50;99.90
4604;DHT22;2314;48.272;11.562;2022-08-21T06:21:36;15.50;99.90
4604;DHT22;2314;48.272;11.562;2022-08-21T06:24:04;15.60;99.90
4604;DHT22;2314;48.272;11.562;2022-08-21T06:26:32;15.60;99.90
4604;DHT22;2314;48.272;11.562;2022-08-21T06:28:59;15.60;99.90
4604;DHT22;2314;48.272;11.562;2022-08-21T06:31:28;15.70;99.90
4604;DHT22;2314;48.272;11.562;2022-08-21T06:33:55;15.80;99.90
4604;DHT22;2314;48.272;11.562;2022-08-21T06:36:23;15.80;99.90
4604;DHT22;2314;48.272;11.562;2022-08-21T06:38:50;15.80;99.90
4604;DHT22;2314;48.272;11.562;2022-08-21T06:41:18;15.80;99.90
4604;DHT22;2314;48.272;11.562;2022-08-21T06:43:45;15.80;99.90
4604;DHT22;2314;48.272;11.562;2022-08-21T06:46:12;15.90;99.90
4604;DHT22;2314;48.272;11.562;2022-08-21T06:48:41;15.90;99.90
4604;DHT22;2314;48.272;11.562;2022-08-21T06:51:08;15.90;99.90
4604;DHT22;2314;48.272;11.562;2022-08-21T06:53:35;15.90;99.90
4604;DHT22;2314;48.272;11.562;2022-08-21T06:56:03;16.00;99.90
4604;DHT22;2314;48.272;11.562;2022-08-21T06:58:30;16.00;99.90
4604;DHT22;2314;48.272;11.562;2022-08-21T07:00:57;16.10;99.90
4604;DHT22;2314;48.272;11.562;2022-08-21T07:03:26;16.20;99.90
4604;DHT22;2314;48.272;11.562;2022-08-21T07:05:57;16.50;99.90
4604;DHT22;2314;48.272;11.562;2022-08-21T07:08:26;16.60;99.90
4604;DHT22;2314;48.272;11.562;2022-08-21T07:10:55;16.70;99.90
4604;DHT22;2314;48.272;11.562;2022-08-21T07:13:24;16.60;99.90
4604;DHT22;2314;48.272;11.562;2022-08-21T07:15:51;16.60;99.90
4604;DHT22;2314;48.272;11.562;2022-08-21T07:18:18;16.50;99.90
4604;DHT22;2314;48.272;11.562;2022-08-21T07:20:46;16.50;99.90
4604;DHT22;2314;48.272;11.562;2022-08-21T07:23:20;16.50;99.90
4604;DHT22;2314;48.272;11.562;2022-08-21T07:25:49;16.50;99.90
4604;DHT22;2314;48.272;11.562;2022-08-21T07:28:16;16.50;99.90
4604;DHT22;2314;48.272;11.562;2022-08-21T07:30:44;16.50;99.90
4604;DHT22;2314;48.272;11.562;2022-08-21T07:33:11;16.60;99.90
4604;DHT22;2314;48.272;11.562;2022-08-21T07:35:39;16.70;99.90
4604;DHT22;2314;48.272;11.562;2022-08-21T07:38:06;16.70;99.90
4604;DHT22;2314;48.272;11.562;2022-08-21T07:40:34;16.90;99.90
4604;DHT22;2314;48.272;11.562;2022-08-21T07:43:01;17.00;99.90
4604;DHT22;2314;48.272;11.562;2022-08-21T07:45:28;17.20;99.90
4604;DHT22;2314;48.272;11.562;2022-08-21T07:47:56;17.40;99.90
4604;DHT22;2314;48.272;11.562;2022-08-21T07:50:24;17.50;99.90
4604;DHT22;2314;48.272;11.562;2022-08-21T07:52:51;17.50;99.90
4604;DHT22;2314;48.272;11.562;2022-08-21T07:55:19;17.50;99.90
4604;DHT22;2314;48.272;11.562;2022-08-21T07:57:49;17.50;99.90
4604;DHT22;2314;48.272;11.562;2022-08-21T08:00:19;17.60;99.90
4604;DHT22;2314;48.272;11.562;2022-08-21T08:02:50;17.60;99.90
4604;DHT22;2314;48.272;11.562;2022-08-21T08:05:21;17.70;99.90
4604;DHT22;2314;48.272;11.562;2022-08-21T08:07:49;17.70;99.90
4604;DHT22;2314;48.272;11.562;2022-08-21T08:10:17;17.80;99.90
4604;DHT22;2314;48.272;11.562;2022-08-21T08:12:44;17.90;99.90
4604;DHT22;2314;48.272;11.562;2022-08-21T08:15:16;17.90;99.90
4604;DHT22;2314;48.272;11.562;2022-08-21T08:17:45;18.10;99.90
4604;DHT22;2314;48.272;11.562;2022-08-21T08:20:13;18.30;99.90
4604;DHT22;2314;48.272;11.562;2022-08-21T08:22:42;18.50;99.90
4604;DHT22;2314;48.272;11.562;2022-08-21T08:25:11;18.80;99.90
4604;DHT22;2314;48.272;11.562;2022-08-21T08:27:40;19.20;99.90
4604;DHT22;2314;48.272;11.562;2022-08-21T08:30:10;19.50;99.90
4604;DHT22;2314;48.272;11.562;2022-08-21T08:32:40;19.60;99.90
4604;DHT22;2314;48.272;11.562;2022-08-21T08:35:08;19.60;99.90
4604;DHT22;2314;48.272;11.562;2022-08-21T08:37:36;20.20;99.90
4604;DHT22;2314;48.272;11.562;2022-08-21T08:40:07;20.50;99.90
4604;DHT22;2314;48.272;11.562;2022-08-21T08:42:37;21.00;99.90
4604;DHT22;2314;48.272;11.562;2022-08-21T08:45:07;21.10;99.90
4604;DHT22;2314;48.272;11.562;2022-08-21T08:47:39;21.30;99.90
4604;DHT22;2314;48.272;11.562;2022-08-21T08:50:11;21.50;99.90
4604;DHT22;2314;48.272;11.562;2022-08-21T08:52:45;21.70;99.90
4604;DHT22;2314;48.272;11.562;2022-08-21T08:55:18;22.30;99.90
4604;DHT22;2314;48.272;11.562;2022-08-21T08:57:49;22.30;99.90
4604;DHT22;2314;48.272;11.562;2022-08-21T09:00:19;22.10;99.90
4604;DHT22;2314;48.272;11.562;2022-08-21T09:02:52;21.90;99.90
4604;DHT22;2314;48.272;11.562;2022-08-21T09:05:23;22.20;99.90
4604;DHT22;2314;48.272;11.562;2022-08-21T09:08:04;22.90;99.90
4604;DHT22;2314;48.272;11.562;2022-08-21T09:10:50;22.80;99.90
4604;DHT22;2314;48.272;11.562;2022-08-21T09:13:33;23.30;99.90
4604;DHT22;2314;48.272;11.562;2022-08-21T09:16:15;23.50;99.90
4604;DHT22;2314;48.272;11.562;2022-08-21T09:18:56;23.70;99.90
4604;DHT22;2314;48.272;11.562;2022-08-21T09:21:37;23.90;99.90
4604;DHT22;2314;48.272;11.562;2022-08-21T09:24:21;23.90;99.90
4604;DHT22;2314;48.272;11.562;2022-08-21T09:26:59;24.10;99.90
4604;DHT22;2314;48.272;11.562;2022-08-21T09:29:34;24.20;99.90
4604;DHT22;2314;48.272;11.562;2022-08-21T09:32:05;24.40;99.90
4604;DHT22;2314;48.272;11.562;2022-08-21T09:34:39;24.50;99.90
4604;DHT22;2314;48.272;11.562;2022-08-21T09:37:16;24.50;99.90
4604;DHT22;2314;48.272;11.562;2022-08-21T09:39:44;25.00;99.90
4604;DHT22;2314;48.272;11.562;2022-08-21T09:42:11;24.70;99.90
4604;DHT22;2314;48.272;11.562;2022-08-21T09:44:48;24.00;99.90
4604;DHT22;2314;48.272;11.562;2022-08-21T09:47:19;23.50;99.90
4604;DHT22;2314;48.272;11.562;2022-08-21T09:49:47;23.40;99.90
4604;DHT22;2314;48.272;11.562;2022-08-21T09:52:17;23.40;99.90
4604;DHT22;2314;48.272;11.562;2022-08-21T09:54:52;23.20;99.90
4604;DHT22;2314;48.272;11.562;2022-08-21T09:57:24;22.60;99.90
4604;DHT22;2314;48.272;11.562;2022-08-21T10:00:10;22.50;99.90
4604;DHT22;2314;48.272;11.562;2022-08-21T10:02:45;23.20;99.90
4604;DHT22;2314;48.272;11.562;2022-08-21T10:05:19;23.30;99.90
4604;DHT22;2314;48.272;11.562;2022-08-21T10:07:48;23.60;99.90
4604;DHT22;2314;48.272;11.562;2022-08-21T10:10:18;24.30;99.90
4604;DHT22;2314;48.272;11.562;2022-08-21T10:12:52;24.70;99.90
4604;DHT22;2314;48.272;11.562;2022-08-21T10:15:36;25.00;99.90
4604;DHT22;2314;48.272;11.562;2022-08-21T10:18:12;25.30;99.90
4604;DHT22;2314;48.272;11.562;2022-08-21T10:20:47;25.30;99.90
4604;DHT22;2314;48.272;11.562;2022-08-21T10:23:34;25.00;99.90
4604;DHT22;2314;48.272;11.562;2022-08-21T10:26:32;24.40;99.90
4604;DHT22;2314;48.272;11.562;2022-08-21T10:29:15;23.70;99.90
4604;DHT22;2314;48.272;11.562;2022-08-21T10:31:53;23.10;99.90
4604;DHT22;2314;48.272;11.562;2022-08-21T10:34:35;22.50;99.90
4604;DHT22;2314;48.272;11.562;2022-08-21T10:37:21;22.10;99.90
4604;DHT22;2314;48.272;11.562;2022-08-21T10:40:02;22.40;99.90
4604;DHT22;2314;48.272;11.562;2022-08-21T10:42:39;23.30;99.90
4604;DHT22;2314;48.272;11.562;2022-08-21T10:45:32;23.90;99.90
4604;DHT22;2314;48.272;11.562;2022-08-21T10:48:05;24.30;99.90
4604;DHT22;2314;48.272;11.562;2022-08-21T10:50:38;24.20;99.90
4604;DHT22;2314;48.272;11.562;2022-08-21T10:53:19;24.20;99.90
4604;DHT22;2314;48.272;11.562;2022-08-21T10:55:57;24.50;99.90
4604;DHT22;2314;48.272;11.562;2022-08-21T10:58:29;24.90;99.90
4604;DHT22;2314;48.272;11.562;2022-08-21T11:01:03;25.00;99.90
4604;DHT22;2314;48.272;11.562;2022-08-21T11:03:37;25.20;99.90
4604;DHT22;2314;48.272;11.562;2022-08-21T11:06:12;25.00;99.90
4604;DHT22;2314;48.272;11.562;2022-08-21T11:08:44;25.20;99.90
4604;DHT22;2314;48.272;11.562;2022-08-21T11:11:20;25.60;99.90
4604;DHT22;2314;48.272;11.562;2022-08-21T11:13:53;25.70;99.90
4604;DHT22;2314;48.272;11.562;2022-08-21T11:16:26;25.90;99.90
4604;DHT22;2314;48.272;11.562;2022-08-21T11:19:02;26.10;99.90
4604;DHT22;2314;48.272;11.562;2022-08-21T11:21:37;26.30;99.90
4604;DHT22;2314;48.272;11.562;2022-08-21T11:24:21;26.50;99.90
4604;DHT22;2314;48.272;11.562;2022-08-21T11:27:01;27.20;99.90
4604;DHT22;2314;48.272;11.562;2022-08-21T11:29:35;26.60;99.90
4604;DHT22;2314;48.272;11.562;2022-08-21T11:32:30;26.50;99.90
4604;DHT22;2314;48.272;11.562;2022-08-21T11:35:12;26.70;99.90
4604;DHT22;2314;48.272;11.562;2022-08-21T11:38:01;27.50;99.90
4604;DHT22;2314;48.272;11.562;2022-08-21T11:40:52;27.30;99.90
4604;DHT22;2314;48.272;11.562;2022-08-21T11:43:36;26.50;99.90
4604;DHT22;2314;48.272;11.562;2022-08-21T11:46:14;25.50;99.90
4604;DHT22;2314;48.272;11.562;2022-08-21T11:49:02;25.10;99.90
4604;DHT22;2314;48.272;11.562;2022-08-21T11:51:41;25.50;99.90
4604;DHT22;2314;48.272;11.562;2022-08-21T11:54:19;26.10;99.90
4604;DHT22;2314;48.272;11.562;2022-08-21T11:56:55;26.80;99.90
4604;DHT22;2314;48.272;11.562;2022-08-21T11:59:33;27.00;99.90
4604;DHT22;2314;48.272;11.562;2022-08-21T12:02:09;26.90;99.90
4604;DHT22;2314;48.272;11.562;2022-08-21T12:04:45;26.80;98.10
4604;DHT22;2314;48.272;11.562;2022-08-21T12:07:16;27.10;98.20
4604;DHT22;2314;48.272;11.562;2022-08-21T12:09:53;26.20;97.60
4604;DHT22;2314;48.272;11.562;2022-08-21T12:12:26;25.90;99.90
4604;DHT22;2314;48.272;11.562;2022-08-21T12:15:16;25.80;99.90
4604;DHT22;2314;48.272;11.562;2022-08-21T12:17:54;25.60;99.90
4604;DHT22;2314;48.272;11.562;2022-08-21T12:20:35;26.10;99.90
4604;DHT22;2314;48.272;11.562;2022-08-21T12:23:15;26.30;99.90
4604;DHT22;2314;48.272;11.562;2022-08-21T12:25:47;26.50;99.90
4604;DHT22;2314;48.272;11.562;2022-08-21T12:28:28;26.60;99.90
4604;DHT22;2314;48.272;11.562;2022-08-21T12:30:57;26.60;99.00
4604;DHT22;2314;48.272;11.562;2022-08-21T12:33:27;26.50;99.90
4604;DHT22;2314;48.272;11.562;2022-08-21T12:36:05;25.70;99.90
4604;DHT22;2314;48.272;11.562;2022-08-21T12:38:44;24.90;98.70
4604;DHT22;2314;48.272;11.562;2022-08-21T12:41:18;24.30;99.90
4604;DHT22;2314;48.272;11.562;2022-08-21T12:43:52;24.00;99.90
4604;DHT22;2314;48.272;11.562;2022-08-21T12:46:30;24.40;99.90
4604;DHT22;2314;48.272;11.562;2022-08-21T12:49:03;24.80;99.90
4604;DHT22;2314;48.272;11.562;2022-08-21T12:51:46;25.40;99.90
4604;DHT22;2314;48.272;11.562;2022-08-21T12:54:24;26.10;98.50
4604;DHT22;2314;48.272;11.562;2022-08-21T12:56:57;26.50;96.40
4604;DHT22;2314;48.272;11.562;2022-08-21T12:59:27;26.90;98.10
4604;DHT22;2314;48.272;11.562;2022-08-21T13:01:56;27.30;95.60
4604;DHT22;2314;48.272;11.562;2022-08-21T13:04:34;26.80;95.90
4604;DHT22;2314;48.272;11.562;2022-08-21T13:07:06;26.40;99.90
4604;DHT22;2314;48.272;11.562;2022-08-21T13:09:41;26.80;95.80
4604;DHT22;2314;48.272;11.562;2022-08-21T13:12:11;26.60;97.80
4604;DHT22;2314;48.272;11.562;2022-08-21T13:14:42;26.20;95.60
4604;DHT22;2314;48.272;11.562;2022-08-21T13:17:12;25.80;96.20
4604;DHT22;2314;48.272;11.562;2022-08-21T13:19:40;25.60;99.90
4604;DHT22;2314;48.272;11.562;2022-08-21T13:22:18;25.80;95.90
4604;DHT22;2314;48.272;11.562;2022-08-21T13:24:47;25.80;98.60
4604;DHT22;2314;48.272;11.562;2022-08-21T13:27:22;25.50;99.40
4604;DHT22;2314;48.272;11.562;2022-08-21T13:30:07;25.50;98.90
4604;DHT22;2314;48.272;11.562;2022-08-21T13:32:40;25.70;95.40
4604;DHT22;2314;48.272;11.562;2022-08-21T13:35:11;25.70;96.80
4604;DHT22;2314;48.272;11.562;2022-08-21T13:37:41;26.00;96.00
4604;DHT22;2314;48.272;11.562;2022-08-21T13:40:16;25.80;96.70
4604;DHT22;2314;48.272;11.562;2022-08-21T13:42:46;25.80;93.00
4604;DHT22;2314;48.272;11.562;2022-08-21T13:45:21;26.00;93.90
4604;DHT22;2314;48.272;11.562;2022-08-21T13:47:51;26.00;93.70
4604;DHT22;2314;48.272;11.562;2022-08-21T13:50:21;26.00;93.80
4604;DHT22;2314;48.272;11.562;2022-08-21T13:53:01;26.10;93.80
4604;DHT22;2314;48.272;11.562;2022-08-21T13:55:40;26.10;94.90
4604;DHT22;2314;48.272;11.562;2022-08-21T13:58:09;26.00;92.30
4604;DHT22;2314;48.272;11.562;2022-08-21T14:00:47;25.80;93.80
4604;DHT22;2314;48.272;11.562;2022-08-21T14:03:31;25.80;94.10
4604;DHT22;2314;48.272;11.562;2022-08-21T14:06:00;25.80;93.00
4604;DHT22;2314;48.272;11.562;2022-08-21T14:08:31;25.80;93.20
4604;DHT22;2314;48.272;11.562;2022-08-21T14:11:03;25.80;92.30
4604;DHT22;2314;48.272;11.562;2022-08-21T14:13:36;25.90;94.10
4604;DHT22;2314;48.272;11.562;2022-08-21T14:16:14;25.60;92.40
4604;DHT22;2314;48.272;11.562;2022-08-21T14:18:49;25.80;93.70
4604;DHT22;2314;48.272;11.562;2022-08-21T14:21:29;26.00;92.60
4604;DHT22;2314;48.272;11.562;2022-08-21T14:24:08;26.10;94.20
4604;DHT22;2314;48.272;11.562;2022-08-21T14:26:42;25.80;92.60
4604;DHT22;2314;48.272;11.562;2022-08-21T14:29:13;25.70;92.70
4604;DHT22;2314;48.272;11.562;2022-08-21T14:31:49;25.80;92.50
4604;DHT22;2314;48.272;11.562;2022-08-21T14:34:17;26.00;91.90
4604;DHT22;2314;48.272;11.562;2022-08-21T14:36:44;25.90;91.50
4604;DHT22;2314;48.272;11.562;2022-08-21T14:39:12;26.10;90.50
4604;DHT22;2314;48.272;11.562;2022-08-21T14:41:39;26.30;85.50
4604;DHT22;2314;48.272;11.562;2022-08-21T14:44:09;26.40;91.10
4604;DHT22;2314;48.272;11.562;2022-08-21T14:46:36;26.10;88.60
4604;DHT22;2314;48.272;11.562;2022-08-21T14:49:05;25.80;87.10
4604;DHT22;2314;48.272;11.562;2022-08-21T14:51:33;25.50;90.90
4604;DHT22;2314;48.272;11.562;2022-08-21T14:54:00;24.70;91.20
4604;DHT22;2314;48.272;11.562;2022-08-21T14:56:27;24.30;92.30
4604;DHT22;2314;48.272;11.562;2022-08-21T14:59:00;24.40;94.90
4604;DHT22;2314;48.272;11.562;2022-08-21T15:01:32;24.60;92.60
4604;DHT22;2314;48.272;11.562;2022-08-21T15:04:01;24.70;91.80
4604;DHT22;2314;48.272;11.562;2022-08-21T15:06:30;24.80;92.50
4604;DHT22;2314;48.272;11.562;2022-08-21T15:08:57;25.00;91.50
4604;DHT22;2314;48.272;11.562;2022-08-21T15:11:25;24.80;92.40
4604;DHT22;2314;48.272;11.562;2022-08-21T15:13:55;24.60;90.30
4604;DHT22;2314;48.272;11.562;2022-08-21T15:16:23;24.60;90.70
4604;DHT22;2314;48.272;11.562;2022-08-21T15:18:51;24.60;89.10
4604;DHT22;2314;48.272;11.562;2022-08-21T15:21:18;24.70;89.40
4604;DHT22;2314;48.272;11.562;2022-08-21T15:23:46;24.60;88.40
4604;DHT22;2314;48.272;11.562;2022-08-21T15:26:13;24.70;89.00
4604;DHT22;2314;48.272;11.562;2022-08-21T15:28:40;24.80;91.10
4604;DHT22;2314;48.272;11.562;2022-08-21T15:31:08;24.90;89.00
4604;DHT22;2314;48.272;11.562;2022-08-21T15:33:35;25.00;90.30
4604;DHT22;2314;48.272;11.562;2022-08-21T15:36:02;24.90;89.70
4604;DHT22;2314;48.272;11.562;2022-08-21T15:38:29;25.00;89.50
4604;DHT22;2314;48.272;11.562;2022-08-21T15:40:57;25.00;88.30
4604;DHT22;2314;48.272;11.562;2022-08-21T15:43:27;25.10;88.30
4604;DHT22;2314;48.272;11.562;2022-08-21T15:45:56;25.20;85.80
4604;DHT22;2314;48.272;11.562;2022-08-21T15:48:24;24.90;85.90
4604;DHT22;2314;48.272;11.562;2022-08-21T15:50:51;25.00;91.00
4604;DHT22;2314;48.272;11.562;2022-08-21T15:53:18;24.90;89.10
4604;DHT22;2314;48.272;11.562;2022-08-21T15:55:45;25.00;90.40
4604;DHT22;2314;48.272;11.562;2022-08-21T15:58:15;25.00;87.30
4604;DHT22;2314;48.272;11.562;2022-08-21T16:00:45;24.80;89.10
4604;DHT22;2314;48.272;11.562;2022-08-21T16:03:15;24.80;89.20
4604;DHT22;2314;48.272;11.562;2022-08-21T16:05:45;24.80;89.40
4604;DHT22;2314;48.272;11.562;2022-08-21T16:08:14;24.40;88.30